BKPR Airport Information

Runway Information
Runway 17 Length 8165 ft width 148 ft
Elevation 1789 ft Threshold 0 ft Heading 176
Runway 35 Length 8165 ft Width 148 ft
Elevation 1786 ft Threshold 0 ft Heading 356
Airport Frequencies
Type APP Name APP Frequency 118.775 MHZ
Type GND Name GND Frequency 118 MHZ
Type RMP Name RAMP OPR Frequency 136.8 MHZ
Type TWR Name TWR Frequency 120.125 MHZ
Airport Navaids
Airport Weather Information & NOTAM
ADDS - METARS form results

(0426 UTC 16 October 2019)
Data provider http://aviationweather.gov/metar/data/
 
METAR text: BKPR 160400Z 00000KT CAVOK 06/04 Q1019 BECMG 3000 BR
Conditions at: BKPR (PRISHTINA , CS) observed 0400 UTC 16 October 2019
Temperature: 6.0°C (43°F)
Dewpoint: 4.0°C (39°F) [RH = 87%]
Pressure (altimeter): 30.09 inches Hg (1019.0 mb)
Winds: calm
Visibility: 6 or more miles (10+ km)
Ceiling: ceiling and visibility are OK
Clouds: unknown
Weather: no significant weather observed at this time

METAR text: BKPR 160330Z 00000KT CAVOK 07/04 Q1019 BECMG 3000 BR
Conditions at: BKPR (PRISHTINA , CS) observed 0330 UTC 16 October 2019
Temperature: 7.0°C (45°F)
Dewpoint: 4.0°C (39°F) [RH = 81%]
Pressure (altimeter): 30.09 inches Hg (1019.0 mb)
Winds: calm
Visibility: 6 or more miles (10+ km)
Ceiling: ceiling and visibility are OK
Clouds: unknown
Weather: no significant weather observed at this time

Forecast for: BKPR (PRISHTINA , CS)
Text: TAF BKPR 152330Z 1600/1624 VRB03KT CAVOK
Forecast period: 0000 to 0100 UTC 16 October 2019
Forecast type: FROM: standard forecast or significant change
Winds: variable direction winds at 3 MPH (3 knots; 1.5 m/s)
Visibility: 6 or more miles 10+ km)
Ceiling: unknown
Clouds: missing
Weather: NSW  (no significant weather)
Text: BECMG 1601/1603 2000 BR
Forecast period: 0100 to 0700 UTC 16 October 2019
Forecast type: BECOMING: Conditions expected to become as follows by 0300 UTC 16 October 2019
Winds: variable direction winds at 3 MPH (3 knots; 1.5 m/s)
Visibility: 1.24 miles (2.00 km)
Ceiling: unknown
Clouds: missing
Weather: BR  (mist)
Text: PROB30
Forecast period: 0400 to 0700 UTC 16 October 2019
Forecast type: TEMPORARY: The following changes expected for less than half the time period
Visibility: 0.19 miles (0.31 km)
Ceiling: unknown
Clouds: missing
Weather: BCFG  (patches of fog)
Text: TEMPO 1604/1607 0300 BCFG
Forecast period: 0700 UTC 16 October 2019 to 0000 UTC 17 October 2019
Forecast type: BECOMING: Conditions expected to become as follows by 0900 UTC 16 October 2019
Winds: variable direction winds at 3 MPH (3 knots; 1.5 m/s)
Visibility: 6 or more miles 10+ km)
Ceiling: unknown
Clouds: missing
Weather: NSW  (no significant weather)